Time;durP1;ratioP1;P1;durP2;ratioP2;P2;SDS_P1;SDS_P2;PMS_P1;PMS_P2;Temp;Humidity;BMP_temperature;BMP_pressure;BME280_temperature;BME280_humidity;BME280_pressure;Samples;Min_cycle;Max_cycle;Signal;HPM_P1;HPM_P2
2022/10/06 00:01:15;;;;;;;6.07;2.77;;;13.40;99.90;;;;;;8377197;28;20422;-68
2022/10/06 00:05:16;;;;;;;3.00;2.70;;;13.50;99.90;;;;;;8380472;28;20272;-69
2022/10/06 00:09:17;;;;;;;3.30;2.80;;;13.50;99.90;;;;;;8378164;28;20193;-68
2022/10/06 00:13:17;;;;;;;3.47;2.57;;;13.50;99.90;;;;;;8379115;28;20205;-68
2022/10/06 00:17:18;;;;;;;4.73;2.80;;;13.50;99.90;;;;;;8380422;28;20173;-68
2022/10/06 00:21:19;;;;;;;4.40;2.63;;;13.60;99.90;;;;;;8374087;28;20199;-68
2022/10/06 00:25:21;;;;;;;3.50;2.73;;;13.60;99.90;;;;;;8378790;28;20188;-68
2022/10/06 00:29:22;;;;;;;4.17;3.00;;;13.70;99.90;;;;;;8378863;28;20192;-68
2022/10/06 00:33:23;;;;;;;4.40;2.47;;;13.60;99.90;;;;;;8377030;28;20213;-68
2022/10/06 00:37:25;;;;;;;3.00;2.30;;;13.50;99.90;;;;;;8377153;28;20185;-68
2022/10/06 00:41:27;;;;;;;3.73;2.73;;;13.50;99.90;;;;;;8380413;28;20189;-68
2022/10/06 00:45:57;;;;;;;3.70;2.70;;;13.60;99.90;;;;;;8381807;28;20186;-67
2022/10/06 00:50:01;;;;;;;2.50;2.30;;;13.60;99.90;;;;;;8380196;28;20193;-68
2022/10/06 00:54:02;;;;;;;3.63;2.90;;;13.70;99.90;;;;;;8381132;28;20236;-69
2022/10/06 00:58:04;;;;;;;2.70;2.23;;;13.60;99.90;;;;;;8383334;28;20225;-69
2022/10/06 01:02:23;;;;;;;6.27;2.60;;;13.60;99.90;;;;;;8383505;28;20228;-68
2022/10/06 01:06:24;;;;;;;5.93;2.40;;;13.80;99.90;;;;;;8371189;28;20185;-69
2022/10/06 01:10:24;;;;;;;6.13;2.63;;;13.80;99.90;;;;;;8381875;28;20228;-68
2022/10/06 01:14:26;;;;;;;3.17;2.20;;;13.80;99.90;;;;;;8381431;28;20210;-68
2022/10/06 01:18:30;;;;;;;4.43;2.43;;;13.70;99.90;;;;;;8383554;28;20239;-68
2022/10/06 01:22:34;;;;;;;3.70;2.77;;;13.80;99.90;;;;;;8382061;28;20212;-68
2022/10/06 01:26:41;;;;;;;3.13;2.30;;;13.80;99.90;;;;;;8379619;28;20200;-69
2022/10/06 01:30:51;;;;;;;3.77;2.60;;;13.90;99.90;;;;;;8400778;28;20193;-69
2022/10/06 01:34:52;;;;;;;4.33;2.57;;;14.00;99.90;;;;;;8379552;28;20220;-68
2022/10/06 01:38:53;;;;;;;3.07;2.43;;;14.10;48.80;;;;;;8383012;28;20248;-68
2022/10/06 01:42:54;;;;;;;3.13;2.27;;;14.10;23.20;;;;;;8382343;28;20260;-69
2022/10/06 01:46:55;;;;;;;3.40;2.07;;;14.10;38.40;;;;;;8383028;28;20559;-68
2022/10/06 01:50:56;;;;;;;3.47;2.30;;;14.10;57.50;;;;;;8382664;28;20189;-68
2022/10/06 01:54:57;;;;;;;3.10;2.30;;;14.00;81.30;;;;;;8380751;28;20258;-68
2022/10/06 01:58:57;;;;;;;3.27;2.40;;;14.00;98.40;;;;;;8382157;28;20199;-68
2022/10/06 02:02:58;;;;;;;3.10;2.50;;;13.90;99.90;;;;;;8380389;28;20208;-67
2022/10/06 02:06:59;;;;;;;3.03;2.73;;;13.80;99.90;;;;;;8380538;28;20192;-69
2022/10/06 02:11:05;;;;;;;3.57;2.80;;;13.70;99.90;;;;;;8382624;28;20185;-67
2022/10/06 02:15:09;;;;;;;2.97;2.47;;;13.60;99.90;;;;;;8379207;28;20513;-67
2022/10/06 02:19:10;;;;;;;5.47;2.50;;;13.60;99.90;;;;;;8378159;28;20182;-68
2022/10/06 02:23:11;;;;;;;3.40;2.53;;;13.50;99.90;;;;;;8380910;28;20185;-67
2022/10/06 02:27:11;;;;;;;4.10;3.17;;;13.50;99.90;;;;;;8378434;28;20193;-68
2022/10/06 02:31:13;;;;;;;4.77;2.60;;;13.50;99.90;;;;;;8380587;28;20213;-67
2022/10/06 02:35:13;;;;;;;4.77;2.77;;;13.50;99.90;;;;;;8377678;28;20213;-67
2022/10/06 02:39:14;;;;;;;5.13;2.70;;;13.50;99.90;;;;;;8379873;28;20201;-68
2022/10/06 02:43:15;;;;;;;7.23;2.47;;;13.50;99.90;;;;;;8378686;28;20182;-67
2022/10/06 02:47:17;;;;;;;3.47;2.43;;;13.60;99.90;;;;;;8378038;28;20181;-68
2022/10/06 02:51:19;;;;;;;3.27;2.50;;;13.80;99.90;;;;;;8377347;28;20208;-68
2022/10/06 02:55:20;;;;;;;3.63;2.63;;;13.80;99.90;;;;;;8381270;28;20215;-68
2022/10/06 02:59:21;;;;;;;3.60;2.70;;;14.00;99.90;;;;;;8379352;28;20201;-68
2022/10/06 03:03:22;;;;;;;5.30;2.83;;;14.10;99.90;;;;;;8380444;28;20200;-68
2022/10/06 03:07:23;;;;;;;4.73;2.50;;;14.10;99.90;;;;;;8380898;28;20185;-68
2022/10/06 03:11:26;;;;;;;6.03;2.70;;;14.00;99.90;;;;;;8377983;28;20272;-68
2022/10/06 03:15:27;;;;;;;3.57;2.83;;;14.00;99.90;;;;;;8377794;28;20263;-68
2022/10/06 03:19:28;;;;;;;3.87;2.40;;;14.10;99.90;;;;;;8375830;28;20192;-69
2022/10/06 03:23:29;;;;;;;5.03;3.00;;;14.10;99.90;;;;;;8382102;28;20186;-68
2022/10/06 03:27:29;;;;;;;3.70;2.43;;;14.00;99.90;;;;;;8379698;28;20239;-68
2022/10/06 03:31:30;;;;;;;7.37;2.87;;;13.90;99.90;;;;;;8380415;28;20196;-67
2022/10/06 03:35:31;;;;;;;6.80;2.83;;;13.90;99.90;;;;;;8379405;28;20212;-68
2022/10/06 03:39:33;;;;;;;4.87;2.83;;;13.80;99.90;;;;;;8379041;28;20204;-68
2022/10/06 03:43:34;;;;;;;4.53;2.67;;;13.70;99.90;;;;;;8380144;28;20193;-67
2022/10/06 03:47:35;;;;;;;5.37;3.17;;;13.70;99.90;;;;;;8378562;28;20185;-67
2022/10/06 03:51:38;;;;;;;3.67;2.87;;;13.60;99.90;;;;;;8378822;28;20181;-68
2022/10/06 03:55:39;;;;;;;3.87;2.67;;;13.60;99.90;;;;;;8374682;28;20189;-67
2022/10/06 03:59:40;;;;;;;4.37;3.17;;;13.60;99.90;;;;;;8377612;28;20205;-68
2022/10/06 04:03:41;;;;;;;4.43;2.77;;;13.50;99.90;;;;;;8378587;28;20225;-68
2022/10/06 04:07:41;;;;;;;3.63;2.43;;;13.50;99.90;;;;;;8381511;28;20192;-68
2022/10/06 04:11:43;;;;;;;5.27;2.87;;;13.40;1.00;;;;;;8378698;28;20191;-68
2022/10/06 04:15:45;;;;;;;3.90;2.90;;;13.30;1.00;;;;;;8379793;28;20248;-67
2022/10/06 04:19:46;;;;;;;5.33;3.23;;;13.20;1.00;;;;;;8378486;28;20177;-69
2022/10/06 04:23:47;;;;;;;4.87;2.97;;;13.20;23.60;;;;;;8376869;28;20189;-68
2022/10/06 04:27:48;;;;;;;6.27;3.30;;;13.40;15.80;;;;;;8391215;28;20207;-68
2022/10/06 04:31:49;;;;;;;4.60;3.33;;;13.50;1.00;;;;;;8375502;28;20249;-68
2022/10/06 04:36:01;;;;;;;5.77;3.13;;;13.70;1.00;;;;;;8377705;28;20177;-68
2022/10/06 04:40:03;;;;;;;6.93;3.20;;;13.80;99.90;;;;;;8379111;28;20661;-68
2022/10/06 04:44:04;;;;;;;2.90;2.57;;;13.80;99.90;;;;;;8372618;28;20176;-68
2022/10/06 04:48:05;;;;;;;3.57;2.80;;;13.70;99.90;;;;;;8376522;28;20213;-68
2022/10/06 04:52:06;;;;;;;4.17;2.57;;;13.70;99.90;;;;;;8370841;28;20210;-68
2022/10/06 04:56:11;;;;;;;4.10;2.70;;;13.60;1.00;;;;;;8377941;28;20182;-68
2022/10/06 05:00:24;;;;;;;5.10;2.60;;;13.60;1.00;;;;;;8375167;28;20262;-68
2022/10/06 05:04:25;;;;;;;2.53;2.03;;;13.60;1.00;;;;;;8373566;28;20189;-68
2022/10/06 05:08:25;;;;;;;3.23;2.47;;;13.70;1.00;;;;;;8375379;28;20620;-68
2022/10/06 05:12:29;;;;;;;3.27;2.60;;;13.90;99.90;;;;;;8377295;28;20209;-68
2022/10/06 05:16:30;;;;;;;2.43;2.23;;;14.00;99.90;;;;;;8373162;28;20192;-68
2022/10/06 05:20:31;;;;;;;2.40;2.20;;;14.00;99.90;;;;;;8376196;28;20189;-68
2022/10/06 05:24:32;;;;;;;3.13;2.27;;;14.00;99.90;;;;;;8375358;28;20193;-66
2022/10/06 05:28:33;;;;;;;3.57;2.50;;;14.00;99.90;;;;;;8379812;28;20193;-68
2022/10/06 05:32:34;;;;;;;3.33;2.87;;;13.90;99.90;;;;;;8380995;28;20403;-68
2022/10/06 05:36:35;;;;;;;3.67;2.53;;;13.90;99.90;;;;;;8380889;28;20201;-68
2022/10/06 05:40:35;;;;;;;5.13;2.70;;;13.90;99.90;;;;;;8382142;28;20185;-67
2022/10/06 05:44:36;;;;;;;3.03;2.70;;;14.00;99.90;;;;;;8381256;28;20220;-67
2022/10/06 05:48:37;;;;;;;3.43;2.60;;;14.10;99.90;;;;;;8381846;28;20235;-67
2022/10/06 05:52:38;;;;;;;4.30;2.70;;;14.30;99.90;;;;;;8382870;28;20205;-68
2022/10/06 05:56:38;;;;;;;4.57;2.77;;;14.50;99.90;;;;;;8380910;28;20213;-68
2022/10/06 06:00:39;;;;;;;4.67;2.73;;;14.60;99.90;;;;;;8380331;28;20497;-68
2022/10/06 06:04:41;;;;;;;5.40;2.70;;;14.60;72.60;;;;;;8382018;28;20189;-69
2022/10/06 06:08:41;;;;;;;6.87;3.13;;;14.70;22.50;;;;;;8382021;28;20217;-67
2022/10/06 06:12:42;;;;;;;4.17;2.67;;;14.70;36.80;;;;;;8382082;28;20205;-68
2022/10/06 06:16:44;;;;;;;4.33;2.53;;;14.70;15.10;;;;;;8380925;28;20192;-67
2022/10/06 06:21:00;;;;;;;4.43;2.87;;;14.80;1.00;;;;;;8381777;28;20272;-68
2022/10/06 06:25:01;;;;;;;5.17;2.77;;;14.90;1.00;;;;;;8379154;28;20209;-68
2022/10/06 06:29:02;;;;;;;3.50;2.67;;;15.00;1.00;;;;;;8377735;28;20185;-67
2022/10/06 06:33:03;;;;;;;4.47;2.60;;;15.10;1.00;;;;;;8379983;28;20555;-69
2022/10/06 06:37:04;;;;;;;8.43;2.90;;;15.10;1.00;;;;;;8381449;28;20177;-68
2022/10/06 06:41:16;;;;;;;4.43;2.90;;;15.40;1.00;;;;;;8379094;28;20188;-68
2022/10/06 06:45:16;;;;;;;3.10;2.73;;;15.70;1.00;;;;;;8376546;28;20232;-68
2022/10/06 06:49:19;;;;;;;3.93;2.43;;;15.90;1.00;;;;;;8378206;28;20610;-68
2022/10/06 06:53:20;;;;;;;4.77;2.37;;;16.00;99.90;;;;;;8381020;28;20208;-68
2022/10/06 06:57:20;;;;;;;4.90;2.37;;;16.20;99.90;;;;;;8374564;28;20212;-68
2022/10/06 07:01:22;;;;;;;6.90;2.93;;;16.20;99.90;;;;;;8374548;28;20197;-68
2022/10/06 07:05:23;;;;;;;5.03;2.30;;;16.20;99.90;;;;;;8381561;28;20197;-68
2022/10/06 07:09:27;;;;;;;3.03;2.50;;;16.40;99.90;;;;;;8374807;28;20238;-68
2022/10/06 07:13:28;;;;;;;4.47;2.43;;;16.70;99.90;;;;;;8379224;28;20220;-68
2022/10/06 07:26:18;;;;;;;4.53;2.13;;;16.80;99.90;;;;;;8379013;28;20255;-69
2022/10/06 07:30:25;;;;;;;3.20;1.83;;;16.90;99.90;;;;;;8380331;28;20184;-68
2022/10/06 07:34:29;;;;;;;3.13;1.93;;;16.90;99.90;;;;;;8377478;28;20231;-68
2022/10/06 07:38:30;;;;;;;3.97;2.00;;;17.00;99.90;;;;;;8377004;28;20196;-68
2022/10/06 07:42:46;;;;;;;5.47;1.77;;;17.20;99.90;;;;;;8379024;28;20276;-68
2022/10/06 07:46:47;;;;;;;2.97;1.80;;;17.30;99.90;;;;;;8376949;28;20283;-68
2022/10/06 07:50:50;;;;;;;4.90;1.80;;;17.20;99.90;;;;;;8377407;28;20223;-68
2022/10/06 07:54:51;;;;;;;5.57;1.93;;;17.10;99.90;;;;;;8376399;28;20307;-68
2022/10/06 07:58:52;;;;;;;1.73;1.60;;;17.30;99.90;;;;;;8375589;28;20216;-68
2022/10/06 08:02:53;;;;;;;3.93;1.60;;;17.20;99.90;;;;;;8378603;28;20993;-68
2022/10/06 08:06:56;;;;;;;4.03;2.00;;;17.20;99.90;;;;;;8376569;28;20272;-67
2022/10/06 08:10:58;;;;;;;3.00;1.63;;;17.20;99.90;;;;;;8378812;28;20217;-67
2022/10/06 08:15:05;;;;;;;2.67;1.23;;;17.40;99.90;;;;;;8394628;28;20304;-69
2022/10/06 08:19:06;;;;;;;2.93;1.10;;;17.40;99.90;;;;;;8374813;28;20188;-69
2022/10/06 08:23:10;;;;;;;1.60;0.93;;;17.20;99.90;;;;;;8375379;28;20193;-68
2022/10/06 08:27:11;;;;;;;2.40;0.70;;;17.00;98.30;;;;;;8377199;28;20618;-69
2022/10/06 08:31:14;;;;;;;2.27;0.97;;;17.20;80.40;;;;;;8376104;28;20190;-68
2022/10/06 08:35:15;;;;;;;2.17;0.90;;;17.40;43.80;;;;;;8377343;28;20255;-68
2022/10/06 08:39:16;;;;;;;2.20;1.00;;;17.40;51.20;;;;;;8374168;28;20185;-69
2022/10/06 08:43:19;;;;;;;1.90;0.70;;;17.20;57.40;;;;;;8376765;28;20189;-68
2022/10/06 08:47:21;;;;;;;1.63;0.70;;;17.00;98.50;;;;;;8374418;28;20223;-69
2022/10/06 08:51:59;;;;;;;2.50;0.70;;;16.70;99.90;;;;;;8393918;28;20189;-67
2022/10/06 08:56:11;;;;;;;1.43;0.60;;;16.40;99.90;;;;;;8375162;28;20216;-68
2022/10/06 09:00:14;;;;;;;2.07;0.53;;;15.90;93.40;;;;;;8376690;28;20536;-68
2022/10/06 09:04:27;;;;;;;0.83;0.37;;;15.80;99.90;;;;;;8381945;28;20190;-69
2022/10/06 09:08:37;;;;;;;0.63;0.37;;;15.80;99.90;;;;;;8382826;28;20212;-68
2022/10/06 09:12:46;;;;;;;1.40;0.60;;;15.70;99.90;;;;;;8376301;28;20205;-68
2022/10/06 09:16:53;;;;;;;1.17;0.40;;;15.70;99.90;;;;;;8381353;28;20177;-68
2022/10/06 09:21:17;;;;;;;2.03;0.50;;;15.70;99.90;;;;;;8377354;28;20298;-68
2022/10/06 09:25:25;;;;;;;4.90;0.50;;;15.80;98.00;;;;;;8381521;28;20189;-68
2022/10/06 09:29:30;;;;;;;0.67;0.40;;;15.90;99.90;;;;;;8381783;28;20186;-68
2022/10/06 09:33:38;;;;;;;1.90;0.43;;;15.90;39.20;;;;;;8379514;28;20277;-69
2022/10/06 09:38:03;;;;;;;3.60;0.50;;;15.90;44.60;;;;;;8382710;28;20185;-67
2022/10/06 09:42:11;;;;;;;1.80;0.30;;;16.00;46.50;;;;;;8377891;28;20196;-68
2022/10/06 09:46:33;;;;;;;1.33;0.40;;;15.90;21.60;;;;;;8381443;28;20200;-68
2022/10/06 09:50:34;;;;;;;0.90;0.30;;;15.90;6.20;;;;;;8381306;28;20177;-68
2022/10/06 09:54:37;;;;;;;2.10;0.37;;;16.00;1.00;;;;;;8382458;28;20518;-68
2022/10/06 09:58:38;;;;;;;1.07;0.20;;;16.20;1.70;;;;;;8381091;28;20201;-68
2022/10/06 10:02:39;;;;;;;1.97;0.30;;;16.40;1.00;;;;;;8383580;28;20193;-69
2022/10/06 10:06:40;;;;;;;2.43;0.27;;;16.70;1.00;;;;;;8381930;28;20205;-68
2022/10/06 10:10:41;;;;;;;4.67;0.70;;;16.90;1.00;;;;;;8380228;28;20281;-68
2022/10/06 10:14:42;;;;;;;3.53;0.40;;;16.80;1.00;;;;;;8379210;28;20221;-68
2022/10/06 10:18:49;;;;;;;2.10;0.40;;;16.60;1.00;;;;;;8378047;28;20270;-68
2022/10/06 10:22:51;;;;;;;0.70;0.30;;;16.50;1.00;;;;;;8382356;28;20193;-68
2022/10/06 10:26:56;;;;;;;0.90;0.30;;;16.30;1.00;;;;;;8379367;28;20209;-69
2022/10/06 10:31:34;;;;;;;0.77;0.30;;;16.20;1.00;;;;;;8382267;28;20181;-68
2022/10/06 10:35:45;;;;;;;2.37;0.40;;;16.40;1.00;;;;;;8377078;28;20217;-67
2022/10/06 10:39:53;;;;;;;1.13;0.37;;;16.60;1.00;;;;;;8382856;28;20178;-68
2022/10/06 10:44:19;;;;;;;2.77;0.57;;;16.60;1.00;;;;;;8383096;28;20251;-68
2022/10/06 10:48:35;;;;;;;1.53;0.50;;;16.70;1.00;;;;;;8381070;28;20204;-68
2022/10/06 10:52:40;;;;;;;1.63;0.37;;;16.80;1.00;;;;;;8381619;28;20197;-68
2022/10/06 10:56:42;;;;;;;0.90;0.50;;;16.80;1.00;;;;;;8380645;28;20604;-68
2022/10/06 11:00:48;;;;;;;1.97;0.40;;;16.70;1.00;;;;;;8380704;28;20242;-71
2022/10/06 11:04:59;;;;;;;1.80;0.70;;;16.70;1.00;;;;;;8384179;28;20189;-69
2022/10/06 11:09:17;;;;;;;1.17;0.40;;;16.30;9.00;;;;;;8381489;28;20184;-68
2022/10/06 11:13:33;;;;;;;3.57;0.60;;;16.40;37.50;;;;;;8375117;28;20212;-69
2022/10/06 11:17:43;;;;;;;1.57;0.50;;;16.80;49.20;;;;;;8378951;28;20196;-69
2022/10/06 11:21:50;;;;;;;1.50;0.33;;;17.40;1.00;;;;;;8379579;28;20197;-69
2022/10/06 11:26:08;;;;;;;2.73;0.80;;;17.80;1.00;;;;;;8377699;28;20181;-68
2022/10/06 11:30:18;;;;;;;2.10;0.40;;;17.90;1.00;;;;;;8377826;28;20184;-69
2022/10/06 11:34:19;;;;;;;0.40;0.20;;;18.10;1.00;;;;;;8374589;28;20215;-68
2022/10/06 11:38:19;;;;;;;2.30;0.70;;;18.30;1.00;;;;;;8381429;28;20181;-69
2022/10/06 11:42:41;;;;;;;2.03;0.50;;;18.40;1.00;;;;;;8377904;28;20189;-68
2022/10/06 11:47:00;;;;;;;2.03;0.50;;;18.50;1.00;;;;;;8380265;28;20189;-72
2022/10/06 11:51:28;;;;;;;2.33;0.30;;;18.70;1.00;;;;;;8374495;28;20190;-68
2022/10/06 11:55:29;;;;;;;2.17;0.40;;;18.70;1.00;;;;;;8375201;28;20239;-68
2022/10/06 11:59:30;;;;;;;1.10;0.40;;;18.10;1.00;;;;;;8378970;28;20231;-68
2022/10/06 12:03:42;;;;;;;5.13;0.70;;;17.80;1.00;;;;;;8379859;28;20201;-66
2022/10/06 12:07:55;;;;;;;2.63;0.80;;;17.70;1.00;;;;;;8378501;28;21394;-69
2022/10/06 12:12:25;;;;;;;1.27;0.60;;;17.70;1.00;;;;;;8379433;28;20185;-68
2022/10/06 12:16:41;;;;;;;3.43;0.60;;;17.90;1.00;;;;;;8379245;28;20181;-68
2022/10/06 12:21:05;;;;;;;2.50;0.60;;;18.00;1.00;;;;;;8378859;28;20181;-68
2022/10/06 12:25:19;;;;;;;2.57;0.50;;;18.00;1.00;;;;;;8372795;28;20193;-68
2022/10/06 12:29:40;;;;;;;2.07;0.37;;;17.90;1.00;;;;;;8376799;28;20246;-68
2022/10/06 12:33:42;;;;;;;2.13;0.50;;;18.10;1.00;;;;;;8374813;28;20282;-69
2022/10/06 12:37:51;;;;;;;4.07;0.50;;;18.10;1.00;;;;;;8381094;28;20608;-69
2022/10/06 12:42:11;;;;;;;1.83;0.40;;;18.10;1.00;;;;;;8386435;28;20189;-69
2022/10/06 12:46:34;;;;;;;2.20;0.37;;;17.60;1.00;;;;;;8382329;28;20211;-68
2022/10/06 12:50:36;;;;;;;2.17;0.57;;;17.40;1.00;;;;;;8373090;28;20193;-69
2022/10/06 12:54:45;;;;;;;3.40;0.70;;;17.40;1.00;;;;;;8385334;28;20372;-69
2022/10/06 12:58:46;;;;;;;2.23;0.37;;;17.50;1.00;;;;;;8385827;28;20201;-68
2022/10/06 13:02:46;;;;;;;1.57;0.50;;;17.70;1.00;;;;;;8378909;28;20228;-68
2022/10/06 13:06:48;;;;;;;1.77;0.40;;;17.70;1.00;;;;;;8381501;28;20229;-68
2022/10/06 13:10:50;;;;;;;1.47;0.50;;;17.60;1.00;;;;;;8382109;28;20189;-68
2022/10/06 13:15:23;;;;;;;2.63;0.60;;;17.60;1.00;;;;;;8384772;28;20237;-70
2022/10/06 13:19:27;;;;;;;4.77;0.70;;;17.50;1.00;;;;;;8381970;28;20186;-68
2022/10/06 13:23:33;;;;;;;1.73;0.60;;;17.30;1.00;;;;;;8382273;28;20199;-69
2022/10/06 13:27:34;;;;;;;3.20;0.70;;;17.20;1.00;;;;;;8381572;28;20189;-68
2022/10/06 13:31:36;;;;;;;2.07;0.50;;;17.40;1.00;;;;;;8382547;28;20211;-68
2022/10/06 13:35:37;;;;;;;2.60;0.80;;;17.50;1.00;;;;;;8384426;28;20205;-67
2022/10/06 13:39:38;;;;;;;3.30;0.63;;;17.70;1.00;;;;;;8383614;28;20192;-67
2022/10/06 13:43:53;;;;;;;4.27;0.70;;;17.80;1.00;;;;;;8381503;28;20193;-68
2022/10/06 13:48:19;;;;;;;1.50;0.70;;;17.80;1.00;;;;;;8382651;28;20185;-68
2022/10/06 13:52:42;;;;;;;3.10;0.73;;;17.80;1.00;;;;;;8383358;28;20338;-68
2022/10/06 13:56:43;;;;;;;1.67;0.90;;;17.60;1.00;;;;;;8381533;28;21289;-68
2022/10/06 14:00:50;;;;;;;2.00;0.70;;;17.60;1.00;;;;;;8383446;28;20253;-68
2022/10/06 14:05:19;;;;;;;5.40;0.90;;;17.60;1.00;;;;;;8380423;28;20189;-68
2022/10/06 14:09:39;;;;;;;2.13;0.60;;;17.50;1.00;;;;;;8380733;28;20284;-68
2022/10/06 14:13:51;;;;;;;3.30;0.67;;;17.60;1.00;;;;;;8383329;28;20274;-68
2022/10/06 14:17:54;;;;;;;2.20;0.50;;;17.70;1.00;;;;;;8379793;28;20185;-68
2022/10/06 14:21:55;;;;;;;2.60;0.70;;;17.80;1.00;;;;;;8381250;28;20181;-68
2022/10/06 14:25:55;;;;;;;3.27;0.50;;;17.80;1.00;;;;;;8376678;28;20220;-68
2022/10/06 14:29:56;;;;;;;2.27;0.93;;;17.80;1.00;;;;;;8379895;28;20188;-68
2022/10/06 14:33:57;;;;;;;2.67;0.60;;;17.70;1.00;;;;;;8378993;28;20197;-68
2022/10/06 14:37:58;;;;;;;2.23;0.37;;;17.70;1.00;;;;;;8378939;28;20208;-69
2022/10/06 14:41:58;;;;;;;2.00;0.47;;;17.70;1.00;;;;;;8373912;28;20195;-68
2022/10/06 14:46:00;;;;;;;2.20;0.60;;;17.50;1.00;;;;;;8378835;28;20554;-69
2022/10/06 14:50:00;;;;;;;1.90;0.60;;;17.50;1.00;;;;;;8377968;28;20205;-69
2022/10/06 14:54:02;;;;;;;3.03;0.83;;;17.50;1.00;;;;;;8379904;28;20216;-69
2022/10/06 14:58:03;;;;;;;3.77;0.80;;;17.40;1.00;;;;;;8378470;28;20193;-70
2022/10/06 15:02:04;;;;;;;3.77;0.60;;;17.30;1.00;;;;;;8374738;28;20224;-68
2022/10/06 15:10:29;;;;;;;3.53;0.80;;;17.10;1.00;;;;;;8379166;28;20200;-68
2022/10/06 15:14:30;;;;;;;2.30;0.70;;;17.00;1.00;;;;;;8376716;28;20216;-68
2022/10/06 15:18:32;;;;;;;2.20;0.63;;;16.90;1.00;;;;;;8376247;28;20185;-67
2022/10/06 15:22:33;;;;;;;3.30;0.80;;;16.80;1.00;;;;;;8374432;28;20246;-69
2022/10/06 15:30:53;;;;;;;1.77;0.57;;;16.60;1.00;;;;;;8380499;28;20247;-68
2022/10/06 15:34:54;;;;;;;2.63;0.70;;;16.40;1.00;;;;;;8375595;28;20215;-68
2022/10/06 15:38:57;;;;;;;1.57;0.77;;;16.30;1.00;;;;;;8375524;28;20190;-68
2022/10/06 15:42:57;;;;;;;1.67;0.47;;;16.10;1.00;;;;;;8377796;28;20181;-68
2022/10/06 15:46:58;;;;;;;2.43;0.73;;;16.00;1.00;;;;;;8376898;28;20189;-68
2022/10/06 15:50:59;;;;;;;1.70;0.73;;;15.80;1.00;;;;;;8376938;28;20189;-68
2022/10/06 15:55:00;;;;;;;1.60;1.00;;;15.70;1.00;;;;;;8378382;28;20247;-69
2022/10/06 15:59:01;;;;;;;2.67;0.50;;;15.50;1.00;;;;;;8374596;28;20201;-68
2022/10/06 16:03:16;;;;;;;1.20;0.60;;;15.40;1.00;;;;;;8380360;28;20271;-68
2022/10/06 16:07:18;;;;;;;3.87;0.73;;;15.10;1.00;;;;;;8377081;28;20181;-67
2022/10/06 16:11:19;;;;;;;1.17;0.50;;;14.80;1.00;;;;;;8375415;28;20188;-68
2022/10/06 16:15:20;;;;;;;1.60;0.60;;;14.40;1.00;;;;;;8378673;28;20236;-68
2022/10/06 16:19:21;;;;;;;0.80;0.37;;;14.00;42.00;;;;;;8373856;28;20185;-68
2022/10/06 16:23:22;;;;;;;2.13;0.60;;;13.70;93.50;;;;;;8376176;28;20277;-68
2022/10/06 16:27:23;;;;;;;1.33;0.50;;;13.30;99.90;;;;;;8376111;28;20182;-68
2022/10/06 16:31:24;;;;;;;3.00;0.77;;;13.00;99.90;;;;;;8378171;28;20188;-68
2022/10/06 16:35:24;;;;;;;1.20;0.67;;;12.80;99.90;;;;;;8377770;28;20216;-68
2022/10/06 16:39:25;;;;;;;1.60;0.60;;;12.50;99.90;;;;;;8374484;28;20185;-68
2022/10/06 16:43:38;;;;;;;0.93;0.60;;;12.20;99.90;;;;;;8378156;28;20188;-68
2022/10/06 16:47:40;;;;;;;1.30;0.70;;;11.90;99.90;;;;;;8382023;28;20185;-68
2022/10/06 16:51:44;;;;;;;1.30;0.73;;;11.70;99.90;;;;;;8380974;28;20186;-68
2022/10/06 16:55:45;;;;;;;1.10;0.70;;;11.40;1.00;;;;;;8378235;28;20357;-68
2022/10/06 16:59:46;;;;;;;1.27;0.87;;;11.20;1.00;;;;;;8376555;28;20201;-68
2022/10/06 17:03:46;;;;;;;1.67;0.80;;;11.00;1.00;;;;;;8376712;28;20527;-68
2022/10/06 17:07:47;;;;;;;2.73;0.90;;;10.80;8.40;;;;;;8375855;28;20191;-68
2022/10/06 17:11:51;;;;;;;2.23;0.90;;;10.60;78.90;;;;;;8379202;28;20222;-68
2022/10/06 17:16:04;;;;;;;2.40;1.60;;;10.50;99.90;;;;;;8374791;28;20223;-69
2022/10/06 17:20:06;;;;;;;1.67;1.20;;;10.40;99.90;;;;;;8377262;28;20187;-68
2022/10/06 17:24:08;;;;;;;1.73;1.20;;;10.20;99.90;;;;;;8381659;28;20189;-68
2022/10/06 17:28:10;;;;;;;2.73;1.40;;;10.10;99.90;;;;;;8382284;28;20199;-68
2022/10/06 17:32:10;;;;;;;2.97;1.57;;;10.00;1.00;;;;;;8384888;28;20208;-68
2022/10/06 17:36:15;;;;;;;5.60;2.77;;;10.00;1.00;;;;;;8381153;28;20178;-68
2022/10/06 17:40:15;;;;;;;7.23;3.10;;;10.00;99.90;;;;;;8381547;28;20280;-68
2022/10/06 17:44:21;;;;;;;4.77;2.70;;;9.90;1.00;;;;;;8381002;28;20184;-68
2022/10/06 17:48:25;;;;;;;4.73;2.50;;;9.90;99.90;;;;;;8380562;28;20183;-67
2022/10/06 17:52:27;;;;;;;3.87;2.50;;;9.80;99.90;;;;;;8383117;28;20225;-68
2022/10/06 17:56:33;;;;;;;4.03;2.80;;;9.70;99.90;;;;;;8380900;28;20178;-69
2022/10/06 18:00:34;;;;;;;5.93;2.90;;;9.70;1.00;;;;;;8380276;28;20198;-68
2022/10/06 18:04:36;;;;;;;4.67;2.90;;;9.60;1.00;;;;;;8383929;28;20194;-68
2022/10/06 18:08:38;;;;;;;5.10;2.43;;;9.50;99.90;;;;;;8382105;28;20203;-68
2022/10/06 18:12:40;;;;;;;5.90;2.90;;;9.50;99.90;;;;;;8382896;28;20290;-68
2022/10/06 18:16:44;;;;;;;4.17;2.63;;;9.40;1.00;;;;;;8380506;28;20451;-68
2022/10/06 18:20:45;;;;;;;2.53;2.20;;;9.30;99.90;;;;;;8381972;28;20192;-68
2022/10/06 18:24:46;;;;;;;5.37;2.50;;;9.20;8.40;;;;;;8382059;28;20347;-68
2022/10/06 18:28:48;;;;;;;8.63;3.47;;;9.10;99.90;;;;;;8379082;28;20187;-73
2022/10/06 18:32:50;;;;;;;8.57;3.97;;;9.10;1.00;;;;;;8380090;28;20205;-68
2022/10/06 18:36:51;;;;;;;6.93;4.20;;;9.20;1.00;;;;;;8379305;28;20196;-68
2022/10/06 18:40:54;;;;;;;9.30;4.40;;;9.20;1.00;;;;;;8379888;28;20201;-68
2022/10/06 18:49:17;;;;;;;13.20;5.77;;;9.20;85.70;;;;;;8377411;28;20723;-69
2022/10/06 18:53:18;;;;;;;9.87;5.37;;;9.30;99.90;;;;;;8378981;28;20244;-68
2022/10/06 18:57:19;;;;;;;9.50;4.33;;;9.30;99.90;;;;;;8379599;28;20209;-73
2022/10/06 19:01:20;;;;;;;6.43;3.87;;;9.20;1.00;;;;;;8379999;28;20287;-68
2022/10/06 19:05:21;;;;;;;6.33;3.97;;;9.10;12.70;;;;;;8379153;28;20193;-68
2022/10/06 19:09:23;;;;;;;9.03;4.63;;;8.90;1.00;;;;;;8380269;28;20196;-68
2022/10/06 19:13:24;;;;;;;10.07;5.47;;;9.00;1.00;;;;;;8378913;28;20213;-68
2022/10/06 19:17:25;;;;;;;9.10;6.03;;;9.00;99.90;;;;;;8380134;28;20197;-68
2022/10/06 19:21:26;;;;;;;13.70;7.00;;;8.90;99.90;;;;;;8380808;28;20267;-68
2022/10/06 19:25:27;;;;;;;11.30;5.80;;;9.00;99.90;;;;;;8377066;28;20189;-67
2022/10/06 19:29:35;;;;;;;11.80;6.23;;;9.00;1.00;;;;;;8377983;28;20189;-67
2022/10/06 19:33:38;;;;;;;10.77;5.93;;;9.00;1.00;;;;;;8377995;28;20209;-72
2022/10/06 19:37:39;;;;;;;7.60;5.50;;;8.90;99.90;;;;;;8377922;28;20324;-68
2022/10/06 19:46:00;;;;;;;7.77;4.40;;;8.60;99.90;;;;;;8378308;28;20288;-68
2022/10/06 19:50:02;;;;;;;9.77;4.63;;;8.50;1.00;;;;;;8379790;28;20306;-68
2022/10/06 19:54:04;;;;;;;9.43;5.40;;;8.40;1.00;;;;;;8379813;28;20236;-68
2022/10/06 19:58:07;;;;;;;10.77;5.13;;;8.30;99.90;;;;;;8378767;28;20209;-68
2022/10/06 20:02:10;;;;;;;10.00;4.93;;;8.30;99.90;;;;;;8374018;28;20200;-68
2022/10/06 20:06:13;;;;;;;6.93;5.40;;;8.20;1.00;;;;;;8378883;28;20193;-68
2022/10/06 20:10:15;;;;;;;9.30;5.10;;;8.20;99.90;;;;;;8377658;28;20312;-68
2022/10/06 20:14:19;;;;;;;13.17;6.60;;;8.10;99.90;;;;;;8376828;28;20217;-67
2022/10/06 20:18:20;;;;;;;11.03;6.17;;;8.30;99.90;;;;;;8379151;28;20212;-67
2022/10/06 20:22:22;;;;;;;14.13;7.47;;;8.50;1.00;;;;;;8378670;28;20195;-68
2022/10/06 20:26:26;;;;;;;9.07;6.10;;;8.60;99.90;;;;;;8374512;28;20181;-67
2022/10/06 20:30:26;;;;;;;11.27;6.70;;;8.70;1.00;;;;;;8370867;28;20197;-67
2022/10/06 20:34:31;;;;;;;8.33;5.70;;;8.70;99.90;;;;;;8377330;28;20367;-67
2022/10/06 20:42:53;;;;;;;9.23;5.23;;;8.70;99.90;;;;;;8377749;28;20207;-68
2022/10/06 20:46:54;;;;;;;8.47;5.20;;;8.70;1.00;;;;;;8380074;28;20189;-67
2022/10/06 20:50:56;;;;;;;7.17;5.00;;;8.60;1.00;;;;;;8379344;28;20212;-67
2022/10/06 20:54:57;;;;;;;8.30;4.63;;;8.50;99.90;;;;;;8378502;28;20206;-67
2022/10/06 20:58:58;;;;;;;6.80;4.20;;;8.40;1.00;;;;;;8383394;28;20244;-68
2022/10/06 21:02:59;;;;;;;7.43;4.57;;;8.30;99.90;;;;;;8387171;28;20205;-67
2022/10/06 21:07:02;;;;;;;7.97;4.23;;;8.10;99.90;;;;;;8383784;28;20247;-68
2022/10/06 21:11:03;;;;;;;9.00;4.57;;;8.00;1.00;;;;;;8383639;28;20188;-67
2022/10/06 21:15:04;;;;;;;6.27;4.07;;;7.90;1.00;;;;;;8379925;28;20213;-67
2022/10/06 21:19:07;;;;;;;7.57;4.00;;;7.90;1.00;;;;;;8385880;28;20182;-68
2022/10/06 21:23:08;;;;;;;6.33;3.90;;;7.80;1.00;;;;;;8380307;28;20185;-68
2022/10/06 21:27:09;;;;;;;8.27;5.37;;;7.70;1.00;;;;;;8381572;28;20266;-67
2022/10/06 21:31:12;;;;;;;8.83;5.53;;;7.60;1.00;;;;;;8382613;28;20193;-67
2022/10/06 21:35:13;;;;;;;7.73;5.10;;;7.50;1.00;;;;;;8383747;28;20309;-68
2022/10/06 21:39:14;;;;;;;8.40;5.00;;;7.40;99.90;;;;;;8378639;28;20185;-68
2022/10/06 21:43:15;;;;;;;11.27;5.57;;;7.30;99.90;;;;;;8382967;28;20252;-69
2022/10/06 21:47:16;;;;;;;9.33;5.63;;;7.20;99.90;;;;;;8383891;28;20197;-67
2022/10/06 21:51:17;;;;;;;9.57;5.03;;;7.30;99.90;;;;;;8383303;28;20310;-67